Main page
METAR-TAF:

METAR-TAF

Airports :

Berlin Tegel Airport

Berlin, Germany

latitude: 52-34N, longitude: 013-19E, elevation: 37 m

Current weather observation

The report was made 29 minutes ago, at 04:50 UTC
Wind 3 kt from the North/Northeast, varying between North and East/Northeast
Temperature 5°C
Humidity 75%
Pressure 1032 hPa
Visibility 10 km or more
no clouds below 1500 m and no cumulonimbus

METAR: EDDT 200450Z 03003KT 350V060 CAVOK 05/01 Q1032 NOSIG

Time: 07:19 (05:19 UTC)

Forecast

The report was made 6 hours and 19 minutes ago, at 23:00 UTC
Forecast valid from 20 at 00 UTC to 20 at 24 UTC
Wind 3 kt from variable directions
Visibility 10 km or more
no clouds below 1500 m and no cumulonimbus
Becoming
from 20 at 07 UTC to 20 at 10 UTC
Wind 6 kt from the North/Northeast
Becoming
from 20 at 18 UTC to 20 at 21 UTC
Wind 3 kt from variable directions

TAF: EDDT 192300Z 2000/2024 VRB03KT CAVOK BECMG 2007/2010 02006KT BECMG 2018/2021 VRB03KT

Weather observations and forecasts of more than 4000 airports (METAR and TAF reports).

The available stations are represented by yellow and red dots on the map.

Hover mouse over dot to see the name of the station.

Then click to see weather observations and forecasts.

To change the map : click on the green buttons with a black cross to zoom in, on the green button with a dash to zoom out, or on the green arrows for adjacent maps.


METAR-TAF: